Time;durP1;ratioP1;P1;durP2;ratioP2;P2;SDS_P1;SDS_P2;PMS_P1;PMS_P2;Temp;Humidity;BMP_temperature;BMP_pressure;BME280_temperature;BME280_humidity;BME280_pressure;Samples;Min_cycle;Max_cycle;Signal;HPM_P1;HPM_P2
2023/06/23 00:00:36;;;;;;;15.43;10.60;;;17.60;99.90;;;;;;5069936;28;20062;-56
2023/06/23 00:03:02;;;;;;;18.73;11.88;;;17.60;99.90;;;;;;5052494;28;20457;-56
2023/06/23 00:05:28;;;;;;;18.40;11.02;;;17.60;99.90;;;;;;5069143;28;20545;-56
2023/06/23 00:07:53;;;;;;;21.10;12.20;;;17.50;99.90;;;;;;5069514;28;20475;-56
2023/06/23 00:10:19;;;;;;;17.17;11.27;;;17.50;99.90;;;;;;5068666;28;20029;-56
2023/06/23 00:12:45;;;;;;;18.58;11.60;;;17.50;99.90;;;;;;5069189;28;20486;-57
2023/06/23 00:15:14;;;;;;;18.33;11.90;;;17.50;99.90;;;;;;5069525;28;20031;-56
2023/06/23 00:17:45;;;;;;;14.43;10.85;;;17.60;99.90;;;;;;5069128;28;20028;-57
2023/06/23 00:20:13;;;;;;;18.75;13.68;;;17.60;99.90;;;;;;5069074;28;20317;-56
2023/06/23 00:22:40;;;;;;;22.67;12.50;;;17.60;99.90;;;;;;5051335;28;20040;-56
2023/06/23 00:25:09;;;;;;;14.00;11.13;;;17.60;99.90;;;;;;5069097;28;20024;-56
2023/06/23 00:27:36;;;;;;;17.98;12.23;;;17.60;99.90;;;;;;5069097;28;20526;-56
2023/06/23 00:30:03;;;;;;;22.83;13.18;;;17.60;99.90;;;;;;5069121;28;20029;-56
2023/06/23 00:32:28;;;;;;;19.95;12.85;;;17.60;99.90;;;;;;5069342;28;20029;-56
2023/06/23 00:34:54;;;;;;;21.48;12.40;;;17.60;99.90;;;;;;5050924;28;20432;-56
2023/06/23 00:37:19;;;;;;;23.63;14.20;;;17.60;99.90;;;;;;5068609;28;20024;-56
2023/06/23 00:39:45;;;;;;;24.42;13.30;;;17.60;99.90;;;;;;5068998;28;20036;-56
2023/06/23 00:42:10;;;;;;;19.48;12.65;;;17.60;99.90;;;;;;5069145;28;20040;-56
2023/06/23 00:44:37;;;;;;;20.85;13.60;;;17.60;99.90;;;;;;5069246;28;20048;-56
2023/06/23 00:47:04;;;;;;;20.98;13.20;;;17.60;99.90;;;;;;5068036;28;20016;-56
2023/06/23 00:49:30;;;;;;;21.63;14.80;;;17.60;99.90;;;;;;5068742;28;20037;-56
2023/06/23 00:52:01;;;;;;;23.38;14.70;;;17.60;99.90;;;;;;5068975;28;20036;-56
2023/06/23 00:54:28;;;;;;;29.13;18.52;;;17.60;99.90;;;;;;5068799;28;20108;-56
2023/06/23 00:56:58;;;;;;;24.92;16.55;;;17.60;99.90;;;;;;5068184;28;20510;-56
2023/06/23 00:59:28;;;;;;;23.55;16.52;;;17.60;99.90;;;;;;5068762;28;20497;-56
2023/06/23 01:01:59;;;;;;;24.60;16.67;;;17.60;99.90;;;;;;5068711;28;20033;-56
2023/06/23 01:04:26;;;;;;;22.83;17.13;;;17.60;99.90;;;;;;5050727;28;20552;-55
2023/06/23 01:07:26;;;;;;;34.08;19.92;;;17.60;99.90;;;;;;5068223;28;20029;-56
2023/06/23 01:09:57;;;;;;;31.13;19.70;;;17.60;99.90;;;;;;5066766;28;20029;-56
2023/06/23 01:12:32;;;;;;;31.92;21.20;;;17.70;99.90;;;;;;5067892;28;20016;-56
2023/06/23 01:15:11;;;;;;;29.52;21.25;;;17.70;99.90;;;;;;5067609;28;20029;-55
2023/06/23 01:17:48;;;;;;;37.55;25.45;;;17.70;99.90;;;;;;5067851;28;20450;-56
2023/06/23 01:20:21;;;;;;;37.05;25.75;;;17.80;99.90;;;;;;5068015;28;20085;-56
2023/06/23 01:23:23;;;;;;;37.53;26.40;;;17.70;99.90;;;;;;5068697;28;20086;-55
2023/06/23 01:26:01;;;;;;;36.92;26.23;;;17.70;99.90;;;;;;5056108;28;20032;-56
2023/06/23 01:28:50;;;;;;;42.10;29.13;;;17.80;99.90;;;;;;5072178;28;20020;-55
2023/06/23 01:31:33;;;;;;;44.35;30.95;;;17.70;99.90;;;;;;5055955;28;20028;-56
2023/06/23 01:34:03;;;;;;;54.75;35.92;;;17.70;99.90;;;;;;5072465;28;20059;-56
2023/06/23 01:36:40;;;;;;;;;;;17.70;99.90;;;;;;5072435;28;20021;-56
2023/06/23 01:39:11;;;;;;;53.28;36.42;;;17.70;99.90;;;;;;5054042;28;20004;-55
2023/06/23 01:42:12;;;;;;;88.97;50.28;;;17.70;99.90;;;;;;5072283;28;20025;-55
2023/06/23 01:44:41;;;;;;;70.07;47.80;;;17.60;99.90;;;;;;5029141;28;20043;-57
2023/06/23 01:47:15;;;;;;;63.33;44.97;;;17.70;99.90;;;;;;5071446;28;20033;-56
2023/06/23 01:49:42;;;;;;;67.95;44.70;;;17.70;99.90;;;;;;5072087;28;20116;-55
2023/06/23 01:52:08;;;;;;;80.18;50.83;;;17.70;99.90;;;;;;5071872;28;20020;-55
2023/06/23 01:54:38;;;;;;;73.43;48.35;;;17.70;99.90;;;;;;5071943;28;20371;-55
2023/06/23 01:57:05;;;;;;;65.30;45.37;;;17.70;99.90;;;;;;5071583;28;20119;-57
2023/06/23 01:59:32;;;;;;;94.43;56.20;;;17.60;99.90;;;;;;5071747;28;20036;-56
2023/06/23 02:02:00;;;;;;;66.55;46.35;;;17.60;99.90;;;;;;5072005;28;20039;-55
2023/06/23 02:04:27;;;;;;;70.22;50.15;;;17.60;99.90;;;;;;5053804;28;20028;-56
2023/06/23 02:06:54;;;;;;;77.97;51.08;;;17.70;99.90;;;;;;5071446;28;20175;-56
2023/06/23 02:09:27;;;;;;;108.75;61.40;;;17.60;99.90;;;;;;5071594;28;20054;-55
2023/06/23 02:11:55;;;;;;;72.03;49.58;;;17.70;99.90;;;;;;5071774;28;20487;-56
2023/06/23 02:14:21;;;;;;;78.85;51.58;;;17.70;99.90;;;;;;5053842;28;20036;-56
2023/06/23 02:16:48;;;;;;;70.35;48.00;;;17.70;99.90;;;;;;5071756;28;20364;-56
2023/06/23 02:19:16;;;;;;;87.75;55.40;;;17.70;99.90;;;;;;5071899;28;20025;-56
2023/06/23 02:21:44;;;;;;;95.80;58.42;;;17.70;99.90;;;;;;5071820;28;20067;-56
2023/06/23 02:24:11;;;;;;;78.40;53.60;;;17.70;99.90;;;;;;5053711;28;20088;-56
2023/06/23 02:26:38;;;;;;;82.90;53.65;;;17.70;99.90;;;;;;5053229;28;20025;-55
2023/06/23 02:29:06;;;;;;;94.00;57.25;;;17.70;99.90;;;;;;5053740;28;20020;-55
2023/06/23 02:31:33;;;;;;;100.20;58.22;;;17.70;99.90;;;;;;5055826;28;20035;-55
2023/06/23 02:33:59;;;;;;;80.85;51.85;;;17.70;99.90;;;;;;5052987;28;20024;-55
2023/06/23 02:36:34;;;;;;;86.43;54.55;;;17.70;99.90;;;;;;5071393;28;20028;-55
2023/06/23 02:39:04;;;;;;;94.82;56.72;;;17.70;99.90;;;;;;5071680;28;20021;-56
2023/06/23 02:41:32;;;;;;;105.97;62.80;;;17.60;99.90;;;;;;5066554;28;20107;-56
2023/06/23 02:44:00;;;;;;;78.50;50.20;;;17.60;99.90;;;;;;5070420;28;20033;-56
2023/06/23 02:46:35;;;;;;;93.30;57.92;;;17.60;99.90;;;;;;5049337;28;20025;-56
2023/06/23 02:49:06;;;;;;;78.07;54.70;;;17.60;99.90;;;;;;5052094;28;20051;-56
2023/06/23 02:51:34;;;;;;;;;;;17.60;99.90;;;;;;5070892;28;20025;-56
2023/06/23 02:54:07;;;;;;;91.63;54.28;;;17.60;99.90;;;;;;5070056;28;19939;-56
2023/06/23 02:56:40;;;;;;;82.75;54.25;;;17.50;99.90;;;;;;5070584;28;20029;-56
2023/06/23 02:59:09;;;;;;;84.53;51.80;;;17.50;99.90;;;;;;5071376;28;20479;-56
2023/06/23 03:01:38;;;;;;;82.78;53.10;;;17.50;99.90;;;;;;5071463;28;20048;-56
2023/06/23 03:04:04;;;;;;;85.32;53.00;;;17.50;99.90;;;;;;5071174;28;20036;-56
2023/06/23 03:06:34;;;;;;;77.65;52.17;;;17.50;99.90;;;;;;5051428;28;20036;-56
2023/06/23 03:09:02;;;;;;;84.55;54.47;;;17.50;99.90;;;;;;5070047;28;20415;-57
2023/06/23 03:11:27;;;;;;;94.85;56.75;;;17.50;99.90;;;;;;5069421;28;20044;-56
2023/06/23 03:13:53;;;;;;;83.05;50.88;;;17.50;99.90;;;;;;5069826;28;20113;-56
2023/06/23 03:16:31;;;;;;;79.40;50.67;;;17.50;99.90;;;;;;5069256;28;20074;-55
2023/06/23 03:19:13;;;;;;;85.15;52.22;;;17.50;99.90;;;;;;5067039;28;20028;-56
2023/06/23 03:21:39;;;;;;;87.97;55.03;;;17.40;99.90;;;;;;5068500;28;20403;-56
2023/06/23 03:24:11;;;;;;;76.15;49.25;;;17.50;99.90;;;;;;5070405;28;20601;-56
2023/06/23 03:26:41;;;;;;;82.60;52.60;;;17.50;99.90;;;;;;5070613;28;20513;-56
2023/06/23 03:29:10;;;;;;;75.10;50.20;;;17.40;99.90;;;;;;5070836;28;20020;-56
2023/06/23 03:31:40;;;;;;;100.75;57.42;;;17.50;99.90;;;;;;5070842;28;20097;-56
2023/06/23 03:34:06;;;;;;;91.00;54.60;;;17.40;99.90;;;;;;5070556;28;20020;-56
2023/06/23 03:36:34;;;;;;;85.88;51.55;;;17.40;99.90;;;;;;5070080;28;20388;-56
2023/06/23 03:39:24;;;;;;;93.82;51.95;;;17.40;99.90;;;;;;5070657;28;20078;-56
2023/06/23 03:41:50;;;;;;;92.27;50.67;;;17.40;99.90;;;;;;5070494;28;20381;-56
2023/06/23 03:44:30;;;;;;;67.88;46.45;;;17.40;99.90;;;;;;5070446;28;20277;-56
2023/06/23 03:47:24;;;;;;;77.40;47.42;;;17.40;99.90;;;;;;5052326;28;20024;-56
2023/06/23 03:50:05;;;;;;;77.43;48.08;;;17.40;99.90;;;;;;5067092;28;20036;-56
2023/06/23 03:52:33;;;;;;;75.38;45.40;;;17.30;99.90;;;;;;5070524;28;20035;-56
2023/06/23 03:54:59;;;;;;;73.22;45.05;;;17.30;99.90;;;;;;5070434;28;20024;-56
2023/06/23 03:57:29;;;;;;;62.60;41.60;;;17.30;99.90;;;;;;5069805;28;20175;-56
2023/06/23 03:59:56;;;;;;;70.07;43.55;;;17.30;99.90;;;;;;5052856;28;20038;-56
2023/06/23 04:02:24;;;;;;;67.88;42.30;;;17.30;99.90;;;;;;5052121;28;20060;-56
2023/06/23 04:04:54;;;;;;;67.80;41.72;;;17.30;99.90;;;;;;5070052;28;20588;-56
2023/06/23 04:07:22;;;;;;;62.90;41.65;;;17.30;99.90;;;;;;5069726;28;20115;-56
2023/06/23 04:09:49;;;;;;;88.53;46.33;;;17.30;99.90;;;;;;5069751;28;20032;-56
2023/06/23 04:12:18;;;;;;;58.50;39.00;;;17.30;99.90;;;;;;5070494;28;20029;-56
2023/06/23 04:14:51;;;;;;;65.28;38.75;;;17.30;99.90;;;;;;5069972;28;20025;-56
2023/06/23 04:17:20;;;;;;;85.00;46.05;;;17.30;99.90;;;;;;5051595;28;20032;-56
2023/06/23 04:19:49;;;;;;;91.25;46.47;;;17.20;99.90;;;;;;5069611;28;20024;-56
2023/06/23 04:22:18;;;;;;;72.40;43.92;;;17.20;99.90;;;;;;5070039;28;20507;-56
2023/06/23 04:24:45;;;;;;;69.18;43.50;;;17.20;99.90;;;;;;5069973;28;20056;-55
2023/06/23 04:27:13;;;;;;;84.20;44.97;;;17.10;99.90;;;;;;5070004;28;20495;-56
2023/06/23 04:29:43;;;;;;;67.35;41.30;;;17.20;99.90;;;;;;5069313;28;20084;-56
2023/06/23 04:32:10;;;;;;;80.35;45.83;;;17.10;99.90;;;;;;5069425;28;20232;-56
2023/06/23 04:34:35;;;;;;;77.35;44.97;;;17.10;99.90;;;;;;5069821;28;20167;-57
2023/06/23 04:37:19;;;;;;;81.65;44.95;;;17.00;99.90;;;;;;5068907;28;20044;-57
2023/06/23 04:39:49;;;;;;;65.00;41.20;;;17.00;99.90;;;;;;5069312;28;20036;-57
2023/06/23 04:42:21;;;;;;;56.33;36.85;;;17.00;99.90;;;;;;5069093;28;20077;-57
2023/06/23 04:44:51;;;;;;;61.03;36.78;;;16.90;99.90;;;;;;5069369;28;20371;-57
2023/06/23 04:47:20;;;;;;;72.88;39.60;;;16.90;99.90;;;;;;5074237;28;20122;-57
2023/06/23 04:49:48;;;;;;;59.85;34.47;;;16.90;99.90;;;;;;5070394;28;20039;-57
2023/06/23 04:52:16;;;;;;;53.38;33.97;;;16.90;99.90;;;;;;5068214;28;20031;-56
2023/06/23 04:54:44;;;;;;;57.85;32.80;;;16.80;99.90;;;;;;5067866;28;20028;-57
2023/06/23 04:57:14;;;;;;;53.95;33.03;;;16.80;99.90;;;;;;5067578;28;20020;-57
2023/06/23 04:59:43;;;;;;;67.43;32.90;;;16.70;99.90;;;;;;5069249;28;20400;-56
2023/06/23 05:02:12;;;;;;;55.33;29.40;;;16.70;99.90;;;;;;5067934;28;20055;-56
2023/06/23 05:04:39;;;;;;;44.92;29.02;;;16.70;99.90;;;;;;5068490;28;20422;-56
2023/06/23 05:07:06;;;;;;;58.38;32.60;;;16.70;99.90;;;;;;5068684;28;20040;-56
2023/06/23 05:09:34;;;;;;;55.22;30.95;;;16.70;99.90;;;;;;5068792;28;20041;-56
2023/06/23 05:12:02;;;;;;;65.35;35.20;;;16.60;99.90;;;;;;5051116;28;20381;-56
2023/06/23 05:14:30;;;;;;;70.68;36.70;;;16.60;99.90;;;;;;5068732;28;20399;-56
2023/06/23 05:16:59;;;;;;;57.55;32.38;;;16.60;99.90;;;;;;5050663;28;20029;-56
2023/06/23 05:19:28;;;;;;;76.88;36.72;;;16.60;99.90;;;;;;5069016;28;20104;-57
2023/06/23 05:21:55;;;;;;;59.72;34.20;;;16.50;99.90;;;;;;5069019;28;20029;-56
2023/06/23 05:24:25;;;;;;;65.68;35.28;;;16.50;99.90;;;;;;5069175;28;20564;-56
2023/06/23 05:26:55;;;;;;;71.80;37.65;;;16.50;99.90;;;;;;5068593;28;20559;-56
2023/06/23 05:29:22;;;;;;;80.68;40.50;;;16.50;99.90;;;;;;5068897;28;20448;-56
2023/06/23 05:31:49;;;;;;;84.78;41.97;;;16.50;99.90;;;;;;5050625;28;20499;-56
2023/06/23 05:34:17;;;;;;;51.90;33.28;;;16.50;99.90;;;;;;5050701;28;20028;-57
2023/06/23 05:36:43;;;;;;;70.05;38.42;;;16.50;99.90;;;;;;5068446;28;20089;-57
2023/06/23 05:39:11;;;;;;;68.78;36.58;;;16.50;99.90;;;;;;5068815;28;20048;-56
2023/06/23 05:41:36;;;;;;;70.72;37.63;;;16.50;99.90;;;;;;5068627;28;20498;-57
2023/06/23 05:44:02;;;;;;;75.03;37.90;;;16.50;99.90;;;;;;5069009;28;20037;-57
2023/06/23 05:46:30;;;;;;;87.20;43.50;;;16.40;99.90;;;;;;5068677;28;20025;-56
2023/06/23 05:49:15;;;;;;;68.53;37.53;;;16.40;99.90;;;;;;5068930;28;20037;-56
2023/06/23 05:51:42;;;;;;;69.55;39.13;;;16.40;99.90;;;;;;5068676;28;20073;-56
2023/06/23 05:54:11;;;;;;;73.10;38.83;;;16.40;99.90;;;;;;5069014;28;20032;-56
2023/06/23 05:56:48;;;;;;;86.15;43.38;;;16.40;99.90;;;;;;5050134;28;20305;-57
2023/06/23 05:59:33;;;;;;;80.50;42.47;;;16.40;99.90;;;;;;5068305;28;20028;-56
2023/06/23 06:02:01;;;;;;;85.22;43.95;;;16.40;99.90;;;;;;5069066;28;20108;-57
2023/06/23 06:04:29;;;;;;;105.28;47.72;;;16.30;99.90;;;;;;5068126;28;20032;-56
2023/06/23 06:06:56;;;;;;;108.55;48.60;;;16.30;99.90;;;;;;5067944;28;20031;-57
2023/06/23 06:09:24;;;;;;;90.05;45.25;;;16.40;99.90;;;;;;5066694;28;20375;-56
2023/06/23 06:11:51;;;;;;;81.35;42.17;;;16.40;99.90;;;;;;5071409;28;20029;-56
2023/06/23 06:14:18;;;;;;;85.72;41.63;;;16.40;99.90;;;;;;5070400;28;20414;-56
2023/06/23 06:16:45;;;;;;;67.43;39.15;;;16.40;99.90;;;;;;5070070;28;20044;-56
2023/06/23 06:19:13;;;;;;;71.40;39.38;;;16.30;99.90;;;;;;5053236;28;20119;-56
2023/06/23 06:21:40;;;;;;;70.20;37.88;;;16.30;99.90;;;;;;5071363;28;20036;-56
2023/06/23 06:24:10;;;;;;;50.55;31.65;;;16.30;99.90;;;;;;5071669;28;20495;-56
2023/06/23 06:26:35;;;;;;;54.25;30.83;;;16.30;99.90;;;;;;5071125;28;20039;-56
2023/06/23 06:29:05;;;;;;;50.97;29.63;;;16.20;99.90;;;;;;5071803;28;20024;-56
2023/06/23 06:31:32;;;;;;;62.40;31.42;;;16.20;99.90;;;;;;5071494;28;20234;-56
2023/06/23 06:34:00;;;;;;;49.63;27.10;;;16.20;99.90;;;;;;5060642;28;20495;-56
2023/06/23 06:36:27;;;;;;;43.45;27.55;;;16.20;99.90;;;;;;5071236;28;20391;-56
2023/06/23 06:38:54;;;;;;;44.85;26.10;;;16.20;99.90;;;;;;5053545;28;20056;-55
2023/06/23 06:41:22;;;;;;;43.47;25.65;;;16.20;99.90;;;;;;5053559;28;20055;-56
2023/06/23 06:43:49;;;;;;;45.50;25.95;;;16.10;99.90;;;;;;5071382;28;20444;-56
2023/06/23 06:46:15;;;;;;;44.65;24.05;;;16.10;99.90;;;;;;5073202;28;20078;-55
2023/06/23 06:48:43;;;;;;;51.22;26.30;;;16.00;99.90;;;;;;5071968;28;20038;-55
2023/06/23 06:51:10;;;;;;;34.72;18.23;;;16.10;99.90;;;;;;5071513;28;20006;-55
2023/06/23 06:53:36;;;;;;;31.60;17.63;;;16.00;99.90;;;;;;5071457;28;20063;-56
2023/06/23 06:56:02;;;;;;;29.80;16.63;;;15.80;99.90;;;;;;5070677;28;20079;-55
2023/06/23 06:58:27;;;;;;;31.80;17.25;;;15.80;99.90;;;;;;5071414;28;20518;-56
2023/06/23 07:00:54;;;;;;;25.48;14.52;;;15.80;99.90;;;;;;5072174;28;20074;-56
2023/06/23 07:03:19;;;;;;;26.35;14.45;;;15.60;99.90;;;;;;5071470;28;20112;-56
2023/06/23 07:05:45;;;;;;;27.73;14.55;;;15.60;99.90;;;;;;5070012;28;20097;-55
2023/06/23 07:08:10;;;;;;;28.67;14.05;;;15.50;99.90;;;;;;5070170;28;20780;-55
2023/06/23 07:10:36;;;;;;;29.50;14.32;;;15.50;99.90;;;;;;5052180;28;20020;-55
2023/06/23 07:13:03;;;;;;;21.60;12.68;;;15.40;99.90;;;;;;5070233;28;20102;-55
2023/06/23 07:15:29;;;;;;;21.42;12.35;;;15.40;99.90;;;;;;5069325;28;20398;-55
2023/06/23 07:17:55;;;;;;;22.00;11.73;;;15.30;99.90;;;;;;5051843;28;20020;-56
2023/06/23 07:20:20;;;;;;;19.98;11.15;;;15.30;99.90;;;;;;5069586;28;20688;-56
2023/06/23 07:22:46;;;;;;;18.23;9.35;;;15.30;99.90;;;;;;5051363;28;20067;-55
2023/06/23 07:25:12;;;;;;;17.20;10.32;;;15.30;99.90;;;;;;5069739;28;20056;-55
2023/06/23 07:27:38;;;;;;;16.88;9.57;;;15.20;99.90;;;;;;5051132;28;20040;-55
2023/06/23 07:30:04;;;;;;;19.25;9.80;;;15.20;99.90;;;;;;5070106;28;20033;-55
2023/06/23 07:32:30;;;;;;;17.42;9.95;;;15.10;99.90;;;;;;5068770;28;20040;-56
2023/06/23 07:34:56;;;;;;;16.92;9.68;;;15.10;99.90;;;;;;5068987;28;20037;-56
2023/06/23 07:37:22;;;;;;;21.67;10.63;;;15.20;99.90;;;;;;5068506;28;20028;-55
2023/06/23 07:39:47;;;;;;;16.25;9.55;;;15.10;99.90;;;;;;5068510;28;20043;-55
2023/06/23 07:42:13;;;;;;;15.85;9.05;;;15.20;99.90;;;;;;5069232;28;20387;-55
2023/06/23 07:44:39;;;;;;;20.60;9.65;;;15.20;99.90;;;;;;5069385;28;20056;-56
2023/06/23 07:47:05;;;;;;;21.33;10.73;;;15.20;99.90;;;;;;5065355;28;20078;-56
2023/06/23 07:49:30;;;;;;;19.33;10.55;;;15.20;99.90;;;;;;5068109;28;20509;-56
2023/06/23 07:52:05;;;;;;;16.85;10.30;;;15.20;99.90;;;;;;5067901;28;20052;-56
2023/06/23 07:54:31;;;;;;;23.55;11.88;;;15.20;99.90;;;;;;5065950;28;20165;-56
2023/06/23 07:56:57;;;;;;;22.17;11.13;;;15.20;99.90;;;;;;5068820;28;20425;-55
2023/06/23 07:59:25;;;;;;;16.23;9.85;;;15.20;99.90;;;;;;5069586;28;20040;-55
2023/06/23 08:01:51;;;;;;;21.50;10.82;;;15.20;99.90;;;;;;5069506;28;20062;-55
2023/06/23 08:04:17;;;;;;;16.10;9.73;;;15.20;99.90;;;;;;5031649;28;1078030;-55
2023/06/23 08:06:42;;;;;;;21.90;10.93;;;15.30;99.90;;;;;;5048114;28;20031;-55
2023/06/23 08:09:08;;;;;;;20.92;11.70;;;15.20;99.90;;;;;;5069906;28;20395;-55
2023/06/23 08:11:34;;;;;;;32.45;12.10;;;15.20;99.90;;;;;;5069560;28;20483;-56
2023/06/23 08:14:00;;;;;;;16.40;10.35;;;15.20;99.90;;;;;;5051528;28;20019;-55
2023/06/23 08:16:26;;;;;;;22.55;13.15;;;15.20;99.90;;;;;;5069251;28;20504;-55
2023/06/23 08:18:52;;;;;;;23.08;13.05;;;15.20;99.90;;;;;;5069960;28;20111;-56
2023/06/23 08:21:17;;;;;;;22.88;13.35;;;15.20;99.90;;;;;;5069728;28;20028;-55
2023/06/23 08:23:46;;;;;;;26.85;14.43;;;15.20;99.90;;;;;;5068809;28;20409;-55
2023/06/23 08:26:12;;;;;;;33.05;17.70;;;15.30;99.90;;;;;;5066363;28;20029;-55
2023/06/23 08:28:38;;;;;;;30.45;16.35;;;15.30;99.90;;;;;;5066915;28;20086;-55
2023/06/23 08:31:04;;;;;;;32.15;15.57;;;15.30;99.90;;;;;;5067885;28;20551;-55
2023/06/23 08:33:31;;;;;;;27.70;15.35;;;15.20;99.90;;;;;;5067886;28;20652;-55
2023/06/23 08:35:57;;;;;;;26.42;15.82;;;15.10;99.90;;;;;;5067682;28;20465;-55
2023/06/23 08:38:24;;;;;;;29.40;14.82;;;15.20;99.90;;;;;;5068671;28;20101;-55
2023/06/23 08:40:50;;;;;;;29.48;14.95;;;15.20;99.90;;;;;;5068376;28;20051;-56
2023/06/23 08:43:23;;;;;;;28.15;15.73;;;15.20;99.90;;;;;;5069232;28;20056;-55
2023/06/23 08:45:58;;;;;;;24.58;14.70;;;15.20;99.90;;;;;;5052311;28;20086;-55
2023/06/23 08:48:27;;;;;;;31.77;16.27;;;15.30;99.90;;;;;;5069284;28;20021;-55
2023/06/23 08:50:59;;;;;;;28.90;15.83;;;15.40;99.90;;;;;;5048618;28;20494;-56
2023/06/23 08:53:25;;;;;;;34.72;15.57;;;15.30;99.90;;;;;;5064016;28;20272;-55
2023/06/23 08:55:51;;;;;;;29.60;14.60;;;15.30;99.90;;;;;;5063086;28;20028;-55
2023/06/23 08:58:19;;;;;;;22.90;13.63;;;15.20;99.90;;;;;;5060747;28;20025;-55
2023/06/23 09:00:45;;;;;;;33.40;14.38;;;15.20;99.90;;;;;;5069116;28;20024;-55
2023/06/23 09:03:11;;;;;;;21.80;13.68;;;15.30;99.90;;;;;;5069158;28;20021;-55
2023/06/23 09:05:38;;;;;;;22.90;13.52;;;15.20;99.90;;;;;;5068862;28;20037;-55
2023/06/23 09:08:04;;;;;;;28.25;14.77;;;15.20;99.90;;;;;;5069138;28;20024;-56
2023/06/23 09:10:30;;;;;;;21.38;12.63;;;15.30;99.90;;;;;;5068943;28;20530;-55
2023/06/23 09:13:08;;;;;;;25.73;13.93;;;15.30;99.90;;;;;;5069391;28;20552;-55
2023/06/23 09:15:34;;;;;;;28.33;13.63;;;15.30;99.90;;;;;;5068975;28;20387;-55
2023/06/23 09:18:04;;;;;;;31.25;15.00;;;15.20;99.90;;;;;;5069364;28;20024;-55
2023/06/23 09:20:30;;;;;;;29.30;14.02;;;15.20;99.90;;;;;;5067951;28;20506;-55
2023/06/23 09:22:57;;;;;;;32.28;16.08;;;15.20;99.90;;;;;;5067975;28;20029;-55
2023/06/23 09:25:54;;;;;;;33.45;15.30;;;15.20;99.90;;;;;;5068968;28;20517;-55
2023/06/23 09:28:26;;;;;;;36.35;18.85;;;15.20;99.90;;;;;;5060447;28;20037;-55
2023/06/23 09:30:54;;;;;;;34.22;16.58;;;15.20;99.90;;;;;;5068238;28;20059;-55
2023/06/23 09:33:20;;;;;;;37.70;18.02;;;15.30;99.90;;;;;;5051892;28;20021;-55
2023/06/23 09:35:54;;;;;;;38.15;17.75;;;15.30;99.90;;;;;;5050876;28;20021;-55
2023/06/23 09:38:27;;;;;;;37.78;17.65;;;15.30;99.90;;;;;;5051364;28;20025;-55
2023/06/23 09:41:13;;;;;;;37.60;18.38;;;15.30;99.90;;;;;;5069197;28;20021;-55
2023/06/23 09:43:47;;;;;;;34.30;16.98;;;15.30;99.90;;;;;;5071068;28;20024;-55
2023/06/23 09:46:17;;;;;;;29.80;16.63;;;15.40;99.90;;;;;;5072352;28;20025;-55
2023/06/23 09:48:49;;;;;;;33.17;16.65;;;15.40;99.90;;;;;;5072673;28;20025;-56
2023/06/23 09:51:15;;;;;;;31.27;16.92;;;15.40;99.90;;;;;;5054878;28;20033;-55
2023/06/23 09:53:42;;;;;;;42.00;18.20;;;15.50;99.90;;;;;;5072758;28;20511;-55
2023/06/23 09:56:16;;;;;;;38.90;19.23;;;15.50;99.90;;;;;;5072536;28;20451;-55
2023/06/23 09:58:43;;;;;;;37.05;18.58;;;15.60;99.90;;;;;;5072600;28;20036;-55
2023/06/23 10:01:10;;;;;;;31.95;17.38;;;15.50;99.90;;;;;;5072539;28;20411;-55
2023/06/23 10:03:49;;;;;;;38.10;18.42;;;15.60;99.90;;;;;;5072873;28;20025;-55
2023/06/23 10:06:24;;;;;;;33.40;17.42;;;15.60;99.90;;;;;;5054187;28;20606;-55
2023/06/23 10:08:58;;;;;;;46.30;20.33;;;15.60;99.90;;;;;;5072872;28;20036;-55
2023/06/23 10:11:38;;;;;;;37.33;20.10;;;15.60;99.90;;;;;;5071281;28;20078;-55
2023/06/23 10:14:10;;;;;;;38.92;21.73;;;15.60;99.90;;;;;;5071352;28;20119;-56
2023/06/23 10:16:40;;;;;;;49.60;22.50;;;15.60;99.90;;;;;;5072060;28;20031;-55
2023/06/23 10:19:07;;;;;;;31.73;18.23;;;15.70;99.90;;;;;;5087624;28;20487;-55
2023/06/23 10:21:33;;;;;;;34.95;19.15;;;15.70;99.90;;;;;;5071941;28;20081;-56
2023/06/23 10:24:03;;;;;;;47.65;21.30;;;15.80;99.90;;;;;;5054244;28;20421;-55
2023/06/23 10:26:31;;;;;;;32.27;18.70;;;15.80;99.90;;;;;;5071919;28;20024;-55
2023/06/23 10:28:59;;;;;;;39.97;20.08;;;15.90;99.90;;;;;;5054620;28;20013;-55
2023/06/23 10:31:29;;;;;;;31.33;17.15;;;16.00;99.90;;;;;;5054092;28;20781;-55
2023/06/23 10:33:58;;;;;;;30.73;18.52;;;15.90;99.90;;;;;;5052192;28;20511;-55
2023/06/23 10:36:24;;;;;;;39.22;19.33;;;15.90;99.90;;;;;;5066798;28;20387;-55
2023/06/23 10:38:52;;;;;;;34.20;19.52;;;15.90;99.90;;;;;;5071673;28;20107;-55
2023/06/23 10:41:19;;;;;;;27.35;16.73;;;16.10;99.90;;;;;;5071786;28;20110;-55
2023/06/23 10:43:47;;;;;;;30.15;17.65;;;16.10;99.90;;;;;;5071774;28;20491;-55
2023/06/23 10:46:13;;;;;;;31.40;17.92;;;16.20;99.90;;;;;;5071335;28;20094;-55
2023/06/23 10:48:41;;;;;;;35.85;19.48;;;16.30;99.90;;;;;;5071842;28;20035;-55
2023/06/23 10:51:09;;;;;;;30.95;17.20;;;16.40;99.90;;;;;;5071489;28;20395;-56
2023/06/23 10:53:55;;;;;;;32.28;18.75;;;16.40;99.90;;;;;;5071726;28;20016;-55
2023/06/23 10:56:33;;;;;;;29.33;17.52;;;16.50;99.90;;;;;;5070708;28;20039;-55
2023/06/23 10:58:58;;;;;;;28.65;17.83;;;16.60;99.90;;;;;;5053575;28;20024;-55
2023/06/23 11:01:26;;;;;;;31.05;17.58;;;16.60;99.90;;;;;;5071488;28;20414;-55
2023/06/23 11:03:58;;;;;;;29.10;16.95;;;16.70;99.90;;;;;;5070600;28;20028;-57
2023/06/23 11:06:29;;;;;;;29.42;18.70;;;16.70;99.90;;;;;;5070488;28;20028;-55
2023/06/23 11:08:57;;;;;;;27.02;17.55;;;16.70;99.90;;;;;;5068228;28;20430;-55
2023/06/23 11:11:34;;;;;;;30.33;18.42;;;16.80;99.90;;;;;;5071085;28;20395;-55
2023/06/23 11:14:00;;;;;;;34.63;20.95;;;16.80;99.90;;;;;;5070936;28;20052;-56
2023/06/23 11:16:37;;;;;;;40.03;21.75;;;16.80;99.90;;;;;;5070760;28;20447;-55
2023/06/23 11:19:04;;;;;;;34.95;22.27;;;16.80;99.90;;;;;;5071189;28;20099;-55
2023/06/23 11:21:33;;;;;;;49.97;23.00;;;16.90;99.90;;;;;;5070871;28;20031;-55
2023/06/23 11:24:11;;;;;;;44.90;23.90;;;16.90;99.90;;;;;;5070844;28;20090;-55
2023/06/23 11:26:51;;;;;;;39.85;22.75;;;16.90;99.90;;;;;;5070366;28;20024;-55
2023/06/23 11:29:20;;;;;;;35.78;20.77;;;17.00;99.90;;;;;;5070927;28;20066;-55
2023/06/23 11:32:11;;;;;;;43.97;22.45;;;16.90;99.90;;;;;;5053943;28;20384;-55
2023/06/23 11:34:53;;;;;;;32.55;21.05;;;16.90;99.90;;;;;;5069672;28;20016;-56
2023/06/23 11:37:21;;;;;;;51.33;25.38;;;17.00;99.90;;;;;;5068906;28;20032;-56
2023/06/23 11:39:48;;;;;;;46.83;22.80;;;17.00;99.90;;;;;;5069375;28;20403;-55
2023/06/23 11:42:13;;;;;;;36.00;21.27;;;16.90;99.90;;;;;;5070359;28;20020;-56
2023/06/23 11:44:39;;;;;;;32.95;21.15;;;16.90;99.90;;;;;;5069844;28;20028;-56
2023/06/23 11:47:04;;;;;;;29.45;19.50;;;16.90;99.90;;;;;;5070857;28;20029;-56
2023/06/23 11:49:31;;;;;;;35.40;21.02;;;17.00;99.90;;;;;;5070417;28;20024;-56
2023/06/23 11:52:06;;;;;;;28.23;18.38;;;17.00;99.90;;;;;;5070620;28;20020;-56
2023/06/23 11:54:35;;;;;;;33.03;19.25;;;17.10;99.90;;;;;;5070607;28;20028;-55
2023/06/23 11:57:02;;;;;;;36.80;18.58;;;17.20;99.90;;;;;;5070044;28;20056;-56
2023/06/23 11:59:36;;;;;;;29.92;17.90;;;17.10;99.90;;;;;;5070236;28;20024;-57
2023/06/23 12:02:02;;;;;;;24.02;16.15;;;17.20;99.90;;;;;;5070264;28;20029;-56
2023/06/23 12:04:29;;;;;;;26.30;16.52;;;17.30;99.90;;;;;;5070019;28;20036;-55
2023/06/23 12:06:56;;;;;;;29.08;17.95;;;17.30;99.90;;;;;;5068279;28;20031;-56
2023/06/23 12:09:22;;;;;;;27.58;16.10;;;17.30;99.90;;;;;;5069836;28;20024;-57
2023/06/23 12:11:48;;;;;;;20.88;15.10;;;17.30;99.90;;;;;;5068176;28;20509;-56
2023/06/23 12:14:13;;;;;;;28.25;17.60;;;17.30;99.90;;;;;;5070104;28;20056;-56
2023/06/23 12:16:39;;;;;;;34.67;20.90;;;17.30;99.90;;;;;;5068831;28;20054;-56
2023/06/23 12:19:05;;;;;;;33.60;20.25;;;17.20;99.90;;;;;;5070151;28;20031;-56
2023/06/23 12:21:32;;;;;;;43.70;25.05;;;17.20;99.90;;;;;;5069667;28;20034;-56
2023/06/23 12:23:58;;;;;;;47.78;26.48;;;17.20;99.90;;;;;;5067006;28;20023;-56
2023/06/23 12:26:24;;;;;;;35.05;22.00;;;17.20;99.90;;;;;;5069004;28;20197;-56
2023/06/23 12:28:49;;;;;;;43.40;26.42;;;17.30;99.90;;;;;;5068790;28;20029;-56
2023/06/23 12:31:25;;;;;;;40.85;22.00;;;17.40;99.90;;;;;;5069019;28;20354;-56
2023/06/23 12:33:50;;;;;;;37.25;22.60;;;17.50;99.90;;;;;;5070865;28;20032;-56
2023/06/23 12:36:16;;;;;;;37.58;23.92;;;17.40;99.90;;;;;;5068653;28;20020;-56
2023/06/23 12:38:41;;;;;;;42.08;23.67;;;17.40;99.90;;;;;;5074622;28;20032;-56